Flugplatz Lauenbrück

Für EDHU sind keine METAR/TAF Berichte vorhanden.
Es werden die Flugwettermeldungen vom Flugplatz Hamburg-Finkenwerder in 40 km Entfernung angezeigt.

Bericht für EDHI

vom 25.01. um 22:50 UTC

Wind 8 kt aus 220°

Sichtweite 5000 m

bedeckt in 500 ft

Temperatur 1.0°C

Taupunkt 1.0°C

Luftfeuchtigkeit 100%

Luftdruck 1019 hPa

EDHI 252250Z AUTO 22008KT 5000 // OVC005/// 01/01 Q1019
Keine Prognose (TAF) verfügbar.
Impressum